Time;durP1;ratioP1;P1;durP2;ratioP2;P2;SDS_P1;SDS_P2;PMS_P1;PMS_P2;Temp;Humidity;BMP_temperature;BMP_pressure;BME280_temperature;BME280_humidity;BME280_pressure;Samples;Min_cycle;Max_cycle;Signal;HPM_P1;HPM_P2
2022/01/19 00:00:01;;;;;;;51.00;25.10;;;;;;;-0.57;80.32;101979.98;84477;1336;22809;-79
2022/01/19 00:02:13;;;;;;;53.50;27.50;;;;;;;-0.55;80.49;101979.02;84439;1334;23984;-77
2022/01/19 00:04:23;;;;;;;56.50;26.80;;;;;;;-0.54;80.15;101982.96;84476;1332;24260;-78
2022/01/19 00:06:35;;;;;;;50.60;26.10;;;;;;;-0.53;80.29;101983.70;84473;1329;22705;-78
2022/01/19 00:08:44;;;;;;;58.70;26.40;;;;;;;-0.54;80.36;101979.05;84483;1334;24147;-79
2022/01/19 00:10:54;;;;;;;52.80;24.80;;;;;;;-0.56;80.13;101979.65;84490;1336;24088;-78
2022/01/19 00:13:03;;;;;;;59.70;27.60;;;;;;;-0.59;80.16;101972.88;84470;1335;22637;-78
2022/01/19 00:15:13;;;;;;;53.80;25.60;;;;;;;-0.60;79.95;101966.65;84465;1334;24125;-78
2022/01/19 00:17:24;;;;;;;47.00;23.00;;;;;;;-0.61;80.08;101961.84;84469;1336;22610;-80
2022/01/19 00:19:36;;;;;;;56.40;24.10;;;;;;;-0.60;80.12;101960.15;84372;1330;22623;-79
2022/01/19 00:21:48;;;;;;;49.80;22.50;;;;;;;-0.59;80.02;101961.21;84453;1336;22662;-80
2022/01/19 00:23:58;;;;;;;60.50;27.60;;;;;;;-0.58;80.23;101959.20;84469;1332;22618;-78
2022/01/19 00:26:07;;;;;;;52.40;23.30;;;;;;;-0.53;80.37;101952.70;84364;1335;22632;-77
2022/01/19 00:28:16;;;;;;;55.50;26.30;;;;;;;-0.48;80.42;101947.36;83764;1335;1003795;-79
2022/01/19 00:30:26;;;;;;;53.40;25.40;;;;;;;-0.46;80.15;101946.53;84485;1334;22609;-79
2022/01/19 00:32:36;;;;;;;47.80;23.90;;;;;;;-0.46;80.28;101943.11;84480;1330;23140;-78
2022/01/19 00:34:44;;;;;;;;;;;;;;;-0.49;80.17;101943.02;83756;1332;1003173;-78
2022/01/19 00:36:54;;;;;;;51.30;25.30;;;;;;;-0.53;80.13;101945.49;84482;1333;22599;-78
2022/01/19 00:39:03;;;;;;;46.50;22.40;;;;;;;-0.54;80.13;101943.57;84472;1334;22699;-76
2022/01/19 00:41:12;;;;;;;41.60;20.80;;;;;;;-0.54;80.09;101947.02;84491;1335;24058;-77
2022/01/19 00:43:21;;;;;;;51.30;21.20;;;;;;;-0.53;80.27;101946.00;84463;1332;23990;-76
2022/01/19 00:45:30;;;;;;;50.10;22.90;;;;;;;-0.52;80.06;101945.34;84486;1332;22637;-77
2022/01/19 00:47:39;;;;;;;41.20;20.40;;;;;;;-0.49;80.24;101950.03;84454;1334;22606;-77
2022/01/19 00:49:48;;;;;;;49.30;22.30;;;;;;;-0.45;80.23;101936.96;84496;1335;25312;-77
2022/01/19 00:51:57;;;;;;;41.00;19.80;;;;;;;-0.41;80.26;101939.33;84506;1333;23241;-79
2022/01/19 00:54:07;;;;;;;44.70;22.60;;;;;;;-0.40;80.19;101937.14;84478;1332;22606;-79
2022/01/19 00:56:19;;;;;;;40.30;19.90;;;;;;;-0.42;80.04;101941.38;84484;1328;22624;-80
2022/01/19 00:58:31;;;;;;;37.60;18.80;;;;;;;-0.43;80.16;101939.11;84447;1332;24233;-80
2022/01/19 01:00:42;;;;;;;39.20;17.50;;;;;;;-0.46;79.91;101932.64;84474;1335;22628;-81
2022/01/19 01:02:52;;;;;;;48.50;20.60;;;;;;;-0.51;80.04;101928.90;84449;1334;22603;-80
2022/01/19 01:05:04;;;;;;;45.20;20.00;;;;;;;-0.51;80.15;101922.21;84484;1329;22724;-81
2022/01/19 01:07:13;;;;;;;35.10;15.70;;;;;;;-0.50;80.10;101923.61;84471;1333;22795;-78
2022/01/19 01:09:25;;;;;;;32.90;16.40;;;;;;;-0.46;80.31;101927.52;84470;1332;24267;-80
2022/01/19 01:11:36;;;;;;;32.10;16.70;;;;;;;-0.42;80.13;101922.16;84485;1333;22696;-79
2022/01/19 01:16:18;;;;;;;37.80;16.10;;;;;;;-0.40;80.18;101917.10;84493;1332;22570;-81
2022/01/19 01:18:31;;;;;;;33.50;16.10;;;;;;;-0.37;80.23;101912.55;84471;1336;22608;-81
2022/01/19 01:20:40;;;;;;;33.10;15.20;;;;;;;-0.33;80.35;101907.70;84442;1334;22607;-81
2022/01/19 01:22:50;;;;;;;37.10;15.20;;;;;;;-0.31;80.30;101901.23;84474;1334;22766;-80
2022/01/19 01:25:02;;;;;;;36.60;15.20;;;;;;;-0.31;80.26;101890.77;84467;1336;22640;-79
2022/01/19 01:27:14;;;;;;;29.70;14.80;;;;;;;-0.34;80.23;101891.91;84452;1334;22609;-78
2022/01/19 01:29:23;;;;;;;33.30;17.00;;;;;;;-0.36;80.01;101888.59;84452;1335;24051;-78
2022/01/19 01:31:33;;;;;;;24.60;12.90;;;;;;;-0.36;80.01;101879.81;84468;1333;22625;-77
2022/01/19 01:33:45;;;;;;;35.40;14.60;;;;;;;-0.37;80.10;101869.70;84495;1333;26660;-81
2022/01/19 01:35:54;;;;;;;24.50;12.30;;;;;;;-0.35;80.07;101866.15;84374;1334;24023;-81
2022/01/19 01:38:03;;;;;;;27.60;13.40;;;;;;;-0.31;80.16;101866.78;84461;1334;22635;-78
2022/01/19 01:40:14;;;;;;;25.40;12.60;;;;;;;-0.27;80.15;101857.65;84460;1333;23201;-78
2022/01/19 01:42:24;;;;;;;32.80;13.60;;;;;;;-0.24;80.26;101857.23;84474;1334;23085;-78
2022/01/19 01:44:41;;;;;;;30.20;13.70;;;;;;;-0.21;80.09;101852.66;84314;1337;25509;-78
2022/01/19 01:46:58;;;;;;;34.70;15.90;;;;;;;-0.23;80.10;101843.53;84412;1335;25613;-78
2022/01/19 01:49:13;;;;;;;27.30;15.00;;;;;;;-0.23;80.19;101838.54;84423;1330;22599;-77
2022/01/19 01:54:04;;;;;;;33.80;16.60;;;;;;;-0.29;80.19;101821.42;84242;1337;22670;-77
2022/01/19 01:56:20;;;;;;;26.40;12.70;;;;;;;-0.30;80.26;101825.85;84529;1335;24288;-78
2022/01/19 01:58:30;;;;;;;23.30;13.80;;;;;;;-0.30;80.16;101825.99;84515;1335;26553;-80
2022/01/19 02:00:43;;;;;;;29.10;13.60;;;;;;;-0.28;80.30;101822.81;84382;1335;22765;-79
2022/01/19 02:02:54;;;;;;;30.50;13.40;;;;;;;-0.27;80.34;101811.17;84460;1336;22590;-80
2022/01/19 02:05:08;;;;;;;32.50;15.40;;;;;;;-0.24;80.45;101801.98;84492;1335;22621;-81
2022/01/19 02:07:33;;;;;;;37.70;17.90;;;;;;;-0.22;80.51;101790.55;84383;1335;22625;-78
2022/01/19 02:09:44;;;;;;;36.50;16.80;;;;;;;-0.23;80.39;101786.95;84423;1334;22687;-78
2022/01/19 02:22:04;;;;;;;38.40;17.00;;;;;;;-0.26;80.63;101796.27;84338;1332;22638;-80
2022/01/19 02:24:17;;;;;;;35.90;16.40;;;;;;;-0.24;80.63;101796.33;84491;1334;24023;-79
2022/01/19 02:26:32;;;;;;;46.10;16.30;;;;;;;-0.22;80.70;101787.81;84459;1334;22584;-79
2022/01/19 02:40:51;;;;;;;34.50;15.70;;;;;;;-0.22;81.00;101769.65;84046;1341;22673;-81
2022/01/19 02:43:08;;;;;;;41.30;18.10;;;;;;;-0.21;80.99;101759.71;84079;1334;24379;-80
2022/01/19 02:50:13;;;;;;;38.90;17.80;;;;;;;-0.19;81.49;101746.23;84025;1339;22618;-79
2022/01/19 02:52:23;;;;;;;37.70;16.80;;;;;;;-0.18;81.28;101737.17;84031;1340;25614;-81
2022/01/19 02:54:33;;;;;;;35.40;16.80;;;;;;;-0.17;81.42;101734.27;83785;1340;22632;-81
2022/01/19 02:56:46;;;;;;;34.00;15.30;;;;;;;-0.20;81.35;101724.95;83904;1335;22764;-81
2022/01/19 02:59:03;;;;;;;42.40;17.10;;;;;;;-0.20;81.39;101725.63;84487;1335;24388;-77
2022/01/19 03:08:54;;;;;;;38.50;15.20;;;;;;;-0.11;81.83;101714.54;84030;1342;23076;-79
2022/01/19 03:11:03;;;;;;;34.90;15.80;;;;;;;-0.11;82.04;101705.80;83878;1340;22786;-78
2022/01/19 03:13:13;;;;;;;30.20;13.70;;;;;;;-0.09;82.11;101697.48;84063;1342;24289;-81
2022/01/19 03:15:26;;;;;;;33.60;15.40;;;;;;;-0.08;82.04;101691.66;84046;1337;22613;-82
2022/01/19 03:17:41;;;;;;;30.80;13.90;;;;;;;-0.10;82.15;101685.61;84065;1337;23298;-79
2022/01/19 03:19:50;;;;;;;33.70;13.40;;;;;;;-0.10;82.14;101675.82;84013;1340;23921;-78
2022/01/19 03:22:02;;;;;;;29.20;13.60;;;;;;;-0.12;82.17;101669.92;84042;1341;22611;-78
2022/01/19 03:24:14;;;;;;;31.10;13.60;;;;;;;-0.11;82.22;101666.70;84043;1332;23358;-78
2022/01/19 03:26:24;;;;;;;27.40;14.60;;;;;;;-0.10;82.44;101656.11;83783;1340;22688;-77
2022/01/19 03:28:36;;;;;;;30.00;12.80;;;;;;;-0.11;82.58;101653.33;84046;1338;22612;-80
2022/01/19 03:30:50;;;;;;;28.50;12.30;;;;;;;-0.10;82.95;101648.05;82026;1329;1003570;-77
2022/01/19 03:33:00;;;;;;;30.60;13.80;;;;;;;-0.08;82.90;101639.34;84471;1336;24089;-77
2022/01/19 03:35:11;;;;;;;32.10;13.40;;;;;;;-0.08;82.84;101638.83;84463;1334;22615;-78
2022/01/19 03:37:19;;;;;;;34.00;12.90;;;;;;;-0.08;82.82;101634.71;84483;1330;22609;-79
2022/01/19 03:39:32;;;;;;;26.70;12.20;;;;;;;-0.08;82.93;101635.73;84440;1334;22739;-77
2022/01/19 03:41:44;;;;;;;26.50;13.40;;;;;;;-0.07;83.10;101633.20;84473;1334;25569;-78
2022/01/19 03:43:56;;;;;;;29.00;12.20;;;;;;;-0.04;83.20;101627.96;84462;1333;25499;-78
2022/01/19 03:46:13;;;;;;;23.00;12.40;;;;;;;-0.02;83.11;101626.30;84478;1334;22936;-78
2022/01/19 03:48:36;;;;;;;24.20;12.80;;;;;;;0.01;83.23;101621.20;84469;1330;24383;-79
2022/01/19 03:50:50;;;;;;;25.20;11.80;;;;;;;0.03;83.33;101612.85;84081;1335;558139;-78
2022/01/19 03:53:00;;;;;;;23.20;11.70;;;;;;;0.06;83.47;101607.78;84484;1332;26541;-77
2022/01/19 03:55:11;;;;;;;25.30;12.50;;;;;;;0.08;83.33;101604.39;84462;1333;24240;-78
2022/01/19 03:57:21;;;;;;;24.20;11.80;;;;;;;0.08;83.39;101601.98;84498;1333;22619;-78
2022/01/19 03:59:30;;;;;;;;;;;;;;;0.08;83.42;101603.52;84437;1334;25446;-79
2022/01/19 04:01:39;;;;;;;26.00;10.60;;;;;;;0.06;83.67;101606.23;84427;1335;23921;-78
2022/01/19 04:04:14;;;;;;;24.80;11.30;;;;;;;0.09;83.65;101601.48;84305;1337;23941;-77
2022/01/19 04:06:29;;;;;;;22.30;11.10;;;;;;;0.13;83.59;101597.99;84443;1334;22628;-78
2022/01/19 04:08:40;;;;;;;21.40;11.10;;;;;;;0.16;83.86;101595.67;84413;1325;22605;-80
2022/01/19 04:10:50;;;;;;;28.60;11.30;;;;;;;0.18;83.86;101589.02;84454;1333;22641;-79
2022/01/19 04:13:10;;;;;;;24.10;11.70;;;;;;;0.20;84.00;101583.58;84481;1333;24335;-77
2022/01/19 04:15:20;;;;;;;28.40;12.60;;;;;;;0.19;83.84;101581.83;84447;1334;25049;-78
2022/01/19 04:17:30;;;;;;;27.20;12.50;;;;;;;0.21;84.00;101577.77;84377;1330;23964;-79
2022/01/19 04:19:43;;;;;;;25.90;11.50;;;;;;;0.23;83.87;101566.48;84429;1333;23916;-79
2022/01/19 04:21:53;;;;;;;36.00;13.10;;;;;;;0.25;83.92;101570.85;84445;1330;22605;-78
2022/01/19 04:24:06;;;;;;;27.00;12.30;;;;;;;0.28;83.99;101569.51;84390;1329;22812;-78
2022/01/19 04:26:16;;;;;;;25.00;11.90;;;;;;;0.30;84.12;101568.04;84395;1335;23673;-78
2022/01/19 04:28:28;;;;;;;25.60;11.70;;;;;;;0.32;84.01;101567.20;84454;1334;22612;-78
2022/01/19 04:30:38;;;;;;;23.10;11.60;;;;;;;0.34;84.15;101566.20;84463;1329;26529;-78
2022/01/19 04:32:52;;;;;;;26.20;11.50;;;;;;;0.32;83.89;101565.67;84411;1334;22740;-77
2022/01/19 04:35:07;;;;;;;23.50;11.80;;;;;;;0.32;84.08;101563.10;84361;1334;24330;-77
2022/01/19 04:37:33;;;;;;;26.30;13.00;;;;;;;0.32;83.93;101557.95;84415;1335;25342;-80
2022/01/19 04:45:20;;;;;;;18.70;11.50;;;;;;;0.40;84.18;101542.19;84154;1338;26493;-79
2022/01/19 05:02:23;;;;;;;;;;;;;;;0.48;84.21;101515.23;84411;1334;22597;-77
2022/01/19 05:04:45;;;;;;;28.50;12.90;;;;;;;0.48;84.57;101509.90;84404;1334;22616;-77
2022/01/19 05:07:06;;;;;;;29.60;15.20;;;;;;;0.50;84.33;101508.56;84324;1337;22725;-78
2022/01/19 05:09:49;;;;;;;32.60;14.20;;;;;;;0.50;84.80;101504.98;84390;1334;23980;-79
2022/01/19 05:14:21;;;;;;;26.50;14.80;;;;;;;0.52;84.50;101497.10;84304;1338;22632;-79
2022/01/19 05:16:30;;;;;;;32.20;13.10;;;;;;;0.54;84.38;101495.42;84438;1334;24321;-78
2022/01/19 05:18:42;;;;;;;25.40;13.90;;;;;;;0.55;84.45;101489.10;84401;1333;22716;-80
2022/01/19 05:20:51;;;;;;;25.80;12.70;;;;;;;0.57;84.51;101489.13;84416;1334;22636;-79
2022/01/19 05:23:00;;;;;;;27.20;13.10;;;;;;;0.58;84.57;101490.86;84414;1334;22618;-79
2022/01/19 05:25:12;;;;;;;28.20;13.10;;;;;;;0.59;84.41;101484.20;84418;1334;22631;-79
2022/01/19 05:27:24;;;;;;;30.80;14.80;;;;;;;0.61;84.84;101484.25;84432;1334;22618;-78
2022/01/19 05:29:34;;;;;;;28.80;13.80;;;;;;;0.62;84.80;101480.30;84410;1334;22631;-77
2022/01/19 05:31:42;;;;;;;26.50;14.40;;;;;;;0.62;84.75;101478.77;84395;1335;22839;-77
2022/01/19 05:33:51;;;;;;;27.50;13.90;;;;;;;0.63;84.61;101478.44;84432;1335;22685;-80
2022/01/19 05:36:01;;;;;;;25.10;14.20;;;;;;;0.62;84.45;101473.61;84415;1335;22636;-80
2022/01/19 05:38:13;;;;;;;25.80;13.60;;;;;;;0.63;84.56;101475.88;84422;1336;25456;-77
2022/01/19 05:40:22;;;;;;;27.40;14.90;;;;;;;0.66;84.60;101472.14;84404;1338;22706;-77
2022/01/19 05:42:34;;;;;;;25.40;14.50;;;;;;;0.68;84.71;101470.30;84419;1334;25491;-80
2022/01/19 05:44:47;;;;;;;28.50;14.70;;;;;;;0.70;84.88;101473.09;84406;1333;25377;-79
2022/01/19 05:47:00;;;;;;;31.00;14.40;;;;;;;0.70;84.79;101472.24;84398;1331;22631;-79
2022/01/19 05:49:11;;;;;;;28.70;14.20;;;;;;;0.70;84.77;101473.45;84414;1329;22598;-80
2022/01/19 05:51:20;;;;;;;26.00;13.10;;;;;;;0.71;84.77;101471.05;84403;1335;22742;-82
2022/01/19 05:53:33;;;;;;;28.90;13.70;;;;;;;0.73;84.72;101470.39;84399;1335;24149;-75
2022/01/19 05:55:48;;;;;;;23.00;11.60;;;;;;;0.75;84.89;101470.95;84196;1337;22625;-75
2022/01/19 05:58:01;;;;;;;20.70;11.50;;;;;;;0.76;84.75;101473.38;84359;1335;22615;-77
2022/01/19 06:00:13;;;;;;;30.30;13.80;;;;;;;0.78;84.77;101475.83;84390;1333;23557;-79
2022/01/19 06:02:27;;;;;;;24.20;13.10;;;;;;;0.81;84.80;101478.11;84436;1334;22624;-76
2022/01/19 06:04:39;;;;;;;26.90;13.50;;;;;;;0.82;84.40;101473.31;84452;1335;22616;-74
2022/01/19 06:06:56;;;;;;;29.30;14.90;;;;;;;0.81;84.77;101473.12;84469;1326;22738;-75
2022/01/19 06:09:11;;;;;;;28.90;14.20;;;;;;;0.79;84.50;101468.63;84450;1335;22615;-75
2022/01/19 06:11:23;;;;;;;25.60;12.40;;;;;;;0.79;84.59;101467.43;84480;1332;22876;-75
2022/01/19 06:13:36;;;;;;;28.20;12.90;;;;;;;0.79;84.62;101463.80;84507;1330;22643;-75
2022/01/19 06:15:46;;;;;;;24.80;12.40;;;;;;;0.80;84.65;101460.75;84475;1334;22616;-75
2022/01/19 06:17:59;;;;;;;25.20;15.20;;;;;;;0.83;84.76;101454.95;84408;1338;22610;-76
2022/01/19 06:20:10;;;;;;;31.40;12.70;;;;;;;0.84;84.84;101455.35;84473;1333;25362;-76
2022/01/19 06:22:23;;;;;;;25.80;13.30;;;;;;;0.85;84.64;101456.21;84468;1335;25493;-78
2022/01/19 06:24:32;;;;;;;30.10;13.90;;;;;;;0.85;84.66;101452.08;84462;1333;22612;-80
2022/01/19 06:26:41;;;;;;;26.20;13.70;;;;;;;0.82;84.57;101451.16;84468;1334;24248;-78
2022/01/19 06:28:56;;;;;;;25.90;15.50;;;;;;;0.81;84.55;101446.86;84346;1336;22621;-78
2022/01/19 06:31:08;;;;;;;23.20;11.30;;;;;;;0.83;84.68;101444.15;84449;1333;23053;-80
2022/01/19 06:33:21;;;;;;;22.80;12.40;;;;;;;0.85;84.69;101443.68;84434;1337;25396;-78
2022/01/19 06:35:30;;;;;;;32.70;14.30;;;;;;;0.88;84.75;101435.81;84448;1334;22727;-78
2022/01/19 06:37:39;;;;;;;26.40;12.80;;;;;;;0.91;84.94;101434.33;84415;1335;22624;-78
2022/01/19 06:39:48;;;;;;;26.30;12.50;;;;;;;0.93;84.82;101435.90;84467;1337;22611;-77
2022/01/19 06:42:00;;;;;;;22.70;13.80;;;;;;;0.93;84.79;101433.34;84437;1334;25467;-77
2022/01/19 06:44:33;;;;;;;24.90;14.10;;;;;;;0.93;84.89;101430.40;84428;1334;23978;-79
2022/01/19 06:46:48;;;;;;;24.70;11.50;;;;;;;0.91;84.70;101426.09;84329;1334;22653;-76
2022/01/19 06:48:57;;;;;;;24.80;12.10;;;;;;;0.91;84.76;101424.55;84429;1334;22612;-79
2022/01/19 06:51:10;;;;;;;20.10;12.00;;;;;;;0.91;84.68;101426.42;84453;1330;22636;-76
2022/01/19 06:53:20;;;;;;;22.70;12.90;;;;;;;0.93;84.86;101422.85;84452;1335;25979;-79
2022/01/19 06:55:30;;;;;;;25.60;12.00;;;;;;;0.96;84.70;101425.32;84467;1331;22655;-80
2022/01/19 06:57:44;;;;;;;20.20;11.80;;;;;;;1.00;84.90;101424.89;84458;1334;22860;-79
2022/01/19 06:59:54;;;;;;;24.00;12.10;;;;;;;1.03;84.70;101426.98;84482;1334;25459;-79
2022/01/19 07:02:03;;;;;;;23.10;12.70;;;;;;;1.02;84.80;101430.23;84465;1334;22621;-79
2022/01/19 07:04:15;;;;;;;26.70;13.50;;;;;;;1.04;84.79;101433.04;84448;1329;22716;-79
2022/01/19 07:06:24;;;;;;;23.60;12.40;;;;;;;1.06;84.89;101432.20;84487;1335;22738;-78
2022/01/19 07:08:33;;;;;;;26.80;11.90;;;;;;;1.07;84.64;101432.20;84499;1333;22624;-79
2022/01/19 07:10:44;;;;;;;19.60;10.70;;;;;;;1.08;84.47;101428.80;84455;1333;24349;-75
2022/01/19 07:12:53;;;;;;;23.00;12.80;;;;;;;1.09;84.56;101427.45;84478;1333;22646;-75
2022/01/19 07:15:06;;;;;;;33.90;16.70;;;;;;;1.09;84.22;101426.58;84437;1333;23109;-75
2022/01/19 07:17:15;;;;;;;20.70;12.30;;;;;;;1.10;84.70;101423.34;84462;1334;24279;-77
2022/01/19 07:19:24;;;;;;;21.40;11.70;;;;;;;1.12;84.68;101419.92;84434;1334;24958;-75
2022/01/19 07:21:33;;;;;;;21.10;12.80;;;;;;;1.16;84.54;101419.98;84446;1333;22676;-75
2022/01/19 07:23:45;;;;;;;23.20;12.50;;;;;;;1.16;84.50;101418.45;84423;1335;24345;-79
2022/01/19 07:25:54;;;;;;;29.70;13.60;;;;;;;1.18;84.82;101416.08;84445;1329;22632;-79
2022/01/19 07:28:03;;;;;;;26.00;13.20;;;;;;;1.19;84.66;101413.69;84434;1335;22628;-75
2022/01/19 07:30:17;;;;;;;25.50;14.00;;;;;;;1.18;84.55;101415.73;84433;1333;22717;-78
2022/01/19 07:32:33;;;;;;;23.10;13.10;;;;;;;1.18;84.28;101419.85;84437;1333;24176;-73
2022/01/19 07:34:48;;;;;;;29.70;12.40;;;;;;;1.17;84.47;101414.33;84443;1332;22644;-75
2022/01/19 07:37:00;;;;;;;19.40;10.50;;;;;;;1.21;84.58;101409.09;84438;1325;22679;-78
2022/01/19 07:39:10;;;;;;;23.40;11.00;;;;;;;1.29;84.91;101400.96;84461;1330;22609;-79
2022/01/19 07:41:19;;;;;;;27.10;13.30;;;;;;;1.33;84.91;101402.77;84441;1330;22754;-79
2022/01/19 07:43:28;;;;;;;29.00;14.00;;;;;;;1.36;84.83;101400.38;84294;1336;24435;-79
2022/01/19 07:45:40;;;;;;;20.40;12.10;;;;;;;1.38;84.82;101396.33;84430;1334;22944;-79
2022/01/19 07:47:52;;;;;;;26.10;12.60;;;;;;;1.39;84.60;101391.52;84357;1335;22740;-79
2022/01/19 07:50:01;;;;;;;20.20;13.40;;;;;;;1.41;84.82;101385.17;84450;1335;24299;-76
2022/01/19 07:52:12;;;;;;;27.50;13.80;;;;;;;1.44;84.98;101381.10;84442;1330;22616;-76
2022/01/19 07:54:23;;;;;;;21.10;11.70;;;;;;;1.45;84.73;101379.74;84413;1334;22811;-75
2022/01/19 07:56:33;;;;;;;21.20;12.20;;;;;;;1.47;84.81;101375.63;84447;1334;22667;-75
2022/01/19 07:58:45;;;;;;;18.40;11.20;;;;;;;1.51;84.79;101369.84;84454;1335;22634;-79
2022/01/19 08:00:54;;;;;;;20.10;12.10;;;;;;;1.54;84.40;101363.20;84428;1334;25391;-80
2022/01/19 08:03:03;;;;;;;21.30;12.20;;;;;;;1.58;84.75;101357.92;84448;1335;22621;-75
2022/01/19 08:05:24;;;;;;;21.10;12.20;;;;;;;1.63;84.52;101354.73;84440;1337;23998;-76
2022/01/19 08:07:39;;;;;;;20.60;12.60;;;;;;;1.65;84.75;101354.06;84306;1337;22736;-79
2022/01/19 08:09:48;;;;;;;26.60;12.80;;;;;;;1.64;84.45;101353.71;84452;1334;26547;-79
2022/01/19 08:12:01;;;;;;;21.60;12.30;;;;;;;1.63;84.56;101351.98;84395;1334;24083;-76
2022/01/19 08:14:10;;;;;;;25.30;13.40;;;;;;;1.64;84.41;101354.40;84442;1333;22728;-75
2022/01/19 08:16:19;;;;;;;26.80;14.60;;;;;;;1.65;84.35;101349.42;84435;1328;22626;-75
2022/01/19 08:18:28;;;;;;;20.20;11.70;;;;;;;1.66;84.16;101350.11;84457;1330;22653;-78
2022/01/19 08:20:40;;;;;;;21.90;11.40;;;;;;;1.68;84.56;101348.27;84369;1334;22625;-76
2022/01/19 08:22:49;;;;;;;17.50;11.30;;;;;;;1.72;84.28;101346.23;84455;1334;22601;-78
2022/01/19 08:24:58;;;;;;;20.20;11.90;;;;;;;1.76;84.58;101347.16;84450;1330;22635;-74
2022/01/19 08:27:10;;;;;;;20.90;12.90;;;;;;;1.80;84.33;101340.16;83761;1334;1003880;-75
2022/01/19 08:29:19;;;;;;;20.70;12.20;;;;;;;1.81;84.33;101338.10;84429;1335;25309;-75
2022/01/19 08:31:28;;;;;;;24.60;13.30;;;;;;;1.83;84.45;101331.43;84303;1337;23931;-76
2022/01/19 08:33:37;;;;;;;23.30;13.20;;;;;;;1.85;84.43;101328.52;84461;1335;22824;-75
2022/01/19 08:35:46;;;;;;;21.60;13.90;;;;;;;1.85;84.05;101325.09;84421;1334;22625;-76
2022/01/19 08:37:55;;;;;;;22.80;13.20;;;;;;;1.86;84.29;101330.26;84469;1333;25300;-78
2022/01/19 08:40:05;;;;;;;27.90;12.80;;;;;;;1.87;83.96;101327.52;84439;1333;23941;-79
2022/01/19 08:42:13;;;;;;;21.60;12.60;;;;;;;1.89;83.93;101328.75;84464;1333;22621;-79
2022/01/19 08:44:25;;;;;;;20.50;12.70;;;;;;;1.89;84.09;101322.91;84443;1334;22626;-78
2022/01/19 08:46:34;;;;;;;22.30;12.20;;;;;;;1.91;83.99;101315.68;84442;1334;22911;-78
2022/01/19 08:48:43;;;;;;;21.50;13.40;;;;;;;1.90;83.99;101309.66;84472;1335;25542;-79
2022/01/19 08:50:52;;;;;;;20.20;12.60;;;;;;;1.92;83.95;101306.08;84443;1333;22609;-79
2022/01/19 08:53:04;;;;;;;21.70;13.00;;;;;;;1.89;83.67;101310.34;84449;1334;22857;-79
2022/01/19 08:55:13;;;;;;;33.10;14.80;;;;;;;1.86;84.05;101308.74;84458;1335;22636;-75
2022/01/19 08:57:24;;;;;;;22.30;12.50;;;;;;;1.86;83.74;101301.70;84435;1334;25307;-75
2022/01/19 08:59:33;;;;;;;21.40;12.90;;;;;;;1.86;83.78;101303.75;84461;1335;25463;-75
2022/01/19 09:01:42;;;;;;;23.50;12.70;;;;;;;1.89;83.83;101301.21;84443;1332;22711;-75
2022/01/19 09:03:51;;;;;;;18.20;11.90;;;;;;;1.93;83.84;101299.39;84436;1334;22640;-77
2022/01/19 09:06:03;;;;;;;23.20;12.90;;;;;;;1.98;83.96;101290.16;84467;1334;22592;-77
2022/01/19 09:08:12;;;;;;;25.40;13.00;;;;;;;2.01;84.12;101286.55;84344;1338;22616;-74
2022/01/19 09:10:22;;;;;;;21.40;12.80;;;;;;;2.02;84.02;101284.00;84387;1334;22675;-75
2022/01/19 09:12:30;;;;;;;;;;;;;;;2.06;83.98;101285.07;84455;1335;22608;-74
2022/01/19 09:14:42;;;;;;;22.50;13.60;;;;;;;2.07;83.76;101281.13;84482;1333;22631;-76
2022/01/19 09:16:54;;;;;;;21.30;13.20;;;;;;;2.08;83.94;101282.70;84388;1330;22793;-76
2022/01/19 09:19:07;;;;;;;27.30;12.60;;;;;;;2.11;83.74;101277.72;84457;1334;22622;-79
2022/01/19 09:21:16;;;;;;;29.60;13.40;;;;;;;2.13;83.81;101273.96;84457;1333;22621;-77
2022/01/19 09:23:28;;;;;;;20.10;12.60;;;;;;;2.17;83.77;101267.45;84431;1334;22595;-79
2022/01/19 09:25:40;;;;;;;20.10;12.40;;;;;;;2.21;83.72;101263.55;84465;1335;22616;-77
2022/01/19 09:27:51;;;;;;;24.50;13.90;;;;;;;2.27;83.56;101268.10;84452;1334;22820;-77
2022/01/19 09:30:00;;;;;;;30.30;15.10;;;;;;;2.31;83.58;101266.05;83731;1335;1002821;-78
2022/01/19 09:32:13;;;;;;;25.10;13.70;;;;;;;2.34;83.56;101259.21;84451;1330;22614;-75
2022/01/19 09:34:23;;;;;;;25.50;14.20;;;;;;;2.35;83.27;101260.23;84316;1337;24001;-74
2022/01/19 09:36:35;;;;;;;27.20;15.10;;;;;;;2.36;83.37;101259.06;84472;1333;22632;-75
2022/01/19 09:38:47;;;;;;;28.90;15.00;;;;;;;2.36;83.14;101251.65;84481;1334;22760;-79
2022/01/19 09:40:59;;;;;;;21.20;13.50;;;;;;;2.37;83.08;101246.15;84407;1333;22988;-80
2022/01/19 09:43:08;;;;;;;20.70;13.40;;;;;;;2.39;83.07;101245.48;84467;1333;22650;-77
2022/01/19 09:45:18;;;;;;;25.10;13.90;;;;;;;2.38;83.07;101241.69;84439;1335;22645;-77
2022/01/19 09:47:30;;;;;;;21.70;14.10;;;;;;;2.38;83.08;101238.25;84361;1336;22765;-78
2022/01/19 09:49:40;;;;;;;26.20;14.50;;;;;;;2.39;82.81;101235.84;84435;1333;22779;-79
2022/01/19 09:51:54;;;;;;;24.80;14.50;;;;;;;2.38;82.68;101230.15;84411;1334;25278;-79
2022/01/19 09:54:09;;;;;;;29.30;15.30;;;;;;;2.42;82.93;101224.34;84477;1329;22667;-76
2022/01/19 09:56:20;;;;;;;32.30;16.00;;;;;;;2.42;82.81;101220.38;84439;1333;22600;-78
2022/01/19 09:58:31;;;;;;;28.10;14.20;;;;;;;2.46;82.92;101219.88;84449;1334;24261;-75
2022/01/19 10:00:41;;;;;;;28.70;13.20;;;;;;;2.52;82.78;101210.13;84432;1335;22627;-76
2022/01/19 10:03:18;;;;;;;23.70;13.10;;;;;;;2.56;82.75;101207.58;84433;1334;22612;-75
2022/01/19 10:05:26;;;;;;;31.50;13.30;;;;;;;2.60;82.76;101204.33;84426;1333;24052;-75
2022/01/19 10:07:39;;;;;;;25.40;15.00;;;;;;;2.64;82.67;101203.50;84467;1335;22654;-78
2022/01/19 10:10:01;;;;;;;27.60;16.00;;;;;;;2.68;82.61;101198.36;84448;1334;22661;-76
2022/01/19 10:17:24;;;;;;;24.50;14.30;;;;;;;2.66;82.38;101201.62;84453;1333;22756;-77
2022/01/19 10:19:37;;;;;;;30.10;15.50;;;;;;;2.62;81.99;101196.42;84451;1334;22635;-75
2022/01/19 10:22:12;;;;;;;27.60;14.90;;;;;;;2.59;82.08;101203.45;84447;1336;22867;-75
2022/01/19 10:24:21;;;;;;;29.10;15.30;;;;;;;2.59;82.02;101198.98;84320;1335;22646;-78
2022/01/19 10:26:33;;;;;;;24.10;13.90;;;;;;;2.56;82.04;101197.77;84451;1333;22715;-79
2022/01/19 10:29:07;;;;;;;26.50;14.70;;;;;;;2.55;81.80;101198.27;84448;1329;22605;-80
2022/01/19 10:31:20;;;;;;;28.10;15.00;;;;;;;2.54;82.19;101194.30;84353;1333;25331;-77
2022/01/19 10:33:32;;;;;;;26.70;15.90;;;;;;;2.55;81.86;101191.19;84447;1329;22638;-76
2022/01/19 10:35:42;;;;;;;30.90;16.80;;;;;;;2.56;82.06;101187.42;84455;1334;22602;-74
2022/01/19 10:38:08;;;;;;;27.50;16.40;;;;;;;2.55;81.91;101187.40;84464;1334;25387;-77
2022/01/19 10:40:23;;;;;;;23.50;15.80;;;;;;;2.53;82.05;101180.34;84440;1334;22608;-75
2022/01/19 10:42:34;;;;;;;31.80;14.80;;;;;;;2.55;82.09;101175.69;84433;1334;22725;-73
2022/01/19 10:44:48;;;;;;;21.70;14.20;;;;;;;2.55;81.95;101170.54;84449;1334;25461;-73
2022/01/19 10:46:58;;;;;;;25.40;14.00;;;;;;;2.55;81.84;101170.17;84338;1333;22630;-73
2022/01/19 10:49:10;;;;;;;25.60;15.00;;;;;;;2.58;81.93;101165.39;84456;1335;23625;-75
2022/01/19 10:51:22;;;;;;;29.30;15.60;;;;;;;2.63;81.97;101160.43;84334;1337;22629;-75
2022/01/19 10:53:35;;;;;;;31.90;15.80;;;;;;;2.68;81.99;101165.64;84474;1333;23977;-79
2022/01/19 10:55:49;;;;;;;27.00;15.40;;;;;;;2.70;81.80;101167.02;84465;1333;22662;-78
2022/01/19 10:58:02;;;;;;;25.50;15.10;;;;;;;2.70;81.69;101161.50;84480;1335;24439;-77
2022/01/19 11:00:29;;;;;;;26.90;15.50;;;;;;;2.69;81.61;101156.15;84457;1329;22658;-74
2022/01/19 11:02:45;;;;;;;31.20;16.80;;;;;;;2.70;81.73;101149.27;84473;1334;22743;-74
2022/01/19 11:04:58;;;;;;;28.10;14.10;;;;;;;2.72;81.55;101144.82;84483;1333;22653;-77
2022/01/19 11:07:11;;;;;;;27.60;14.10;;;;;;;2.75;81.59;101141.37;84442;1331;26534;-78
2022/01/19 11:09:28;;;;;;;24.20;15.50;;;;;;;2.77;81.64;101139.34;84460;1333;22600;-75
2022/01/19 11:11:44;;;;;;;26.20;15.50;;;;;;;2.79;81.66;101133.83;84474;1335;22704;-83